ADDS METAR Data INFO
IDs: Format: Raw Decoded Include TAF

Data at: 1153 UTC 23 Jun 2018

METAR for:KZPH (Zephyrhills Muni, FL, US)
Text:KZPH 231135Z AUTO 00000KT 5SM BR CLR 24/24 A3001 RMK AO2 T02370235
Temperature: 23.7°C ( 75°F)
Dewpoint: 23.5°C ( 74°F) [RH = 99%]
Pressure (altimeter):30.01 inches Hg (1016.3 mb)
Winds:calm
Visibility: 5 sm ( 8 km)
Ceiling:at least 12,000 feet AGL
Clouds:sky clear below 12,000 feet AGL
Weather:BR (mist)
QC Flag:automated observation with no human augmentation